Time;durP1;ratioP1;P1;durP2;ratioP2;P2;SDS_P1;SDS_P2;PMS_P1;PMS_P2;Temp;Humidity;BMP_temperature;BMP_pressure;BME280_temperature;BME280_humidity;BME280_pressure;Samples;Min_cycle;Max_cycle;Signal;HPM_P1;HPM_P2
2022/03/02 00:01:55;;;;;;;0.10;0.10;;;;;;;;;;5076636;28;20483;-65
2022/03/02 00:04:21;;;;;;;0.47;0.47;;;;;;;;;;5077404;28;20032;-63
2022/03/02 00:06:46;;;;;;;0.10;0.10;;;;;;;;;;5094888;28;20036;-64
2022/03/02 00:09:12;;;;;;;0.10;0.10;;;;;;;;;;5090581;28;20039;-64
2022/03/02 00:11:38;;;;;;;0.10;0.10;;;;;;;;;;5103979;28;20043;-63
2022/03/02 00:14:05;;;;;;;0.25;0.25;;;;;;;;;;5112982;28;20040;-63
2022/03/02 00:16:31;;;;;;;0.30;0.30;;;;;;;;;;5077161;28;20027;-63
2022/03/02 00:18:57;;;;;;;0.68;0.68;;;;;;;;;;5113007;28;20035;-67
2022/03/02 00:21:23;;;;;;;0.10;0.10;;;;;;;;;;5094862;28;20153;-64
2022/03/02 00:23:48;;;;;;;0.20;0.20;;;;;;;;;;5112998;28;20098;-64
2022/03/02 00:26:14;;;;;;;2.72;2.05;;;;;;;;;;5112752;28;20053;-64
2022/03/02 00:28:39;;;;;;;0.98;0.82;;;;;;;;;;5112750;28;20039;-64
2022/03/02 00:31:05;;;;;;;0.10;0.10;;;;;;;;;;5094844;28;20050;-63
2022/03/02 00:33:30;;;;;;;0.10;0.10;;;;;;;;;;5113080;28;20286;-63
2022/03/02 00:35:56;;;;;;;0.10;0.10;;;;;;;;;;5112910;28;20090;-64
2022/03/02 00:38:21;;;;;;;0.10;0.10;;;;;;;;;;5112169;28;20036;-63
2022/03/02 00:40:47;;;;;;;0.10;0.10;;;;;;;;;;5075638;28;20021;-64
2022/03/02 00:43:12;;;;;;;0.10;0.10;;;;;;;;;;5070968;28;20090;-64
2022/03/02 00:45:38;;;;;;;0.10;0.10;;;;;;;;;;5037299;28;20036;-62
2022/03/02 00:48:05;;;;;;;0.10;0.10;;;;;;;;;;5054232;28;20440;-63
2022/03/02 00:50:31;;;;;;;0.10;0.10;;;;;;;;;;5071296;28;20032;-64
2022/03/02 00:52:57;;;;;;;0.73;0.65;;;;;;;;;;5052848;28;20037;-65
2022/03/02 00:55:23;;;;;;;1.30;0.73;;;;;;;;;;5054022;28;20075;-63
2022/03/02 00:57:48;;;;;;;0.10;0.10;;;;;;;;;;5071585;28;20123;-63
2022/03/02 01:00:14;;;;;;;0.10;0.10;;;;;;;;;;5053866;28;20033;-63
2022/03/02 01:02:40;;;;;;;0.10;0.10;;;;;;;;;;5053204;28;20067;-63
2022/03/02 01:05:06;;;;;;;0.10;0.10;;;;;;;;;;5037284;28;20028;-65
2022/03/02 01:07:32;;;;;;;1.30;1.13;;;;;;;;;;5071986;28;20131;-65
2022/03/02 01:09:57;;;;;;;0.10;0.10;;;;;;;;;;5053866;28;20036;-65
2022/03/02 01:12:23;;;;;;;0.10;0.10;;;;;;;;;;5036819;28;20500;-64
2022/03/02 01:14:49;;;;;;;0.57;0.50;;;;;;;;;;5071223;28;20544;-65
2022/03/02 01:17:14;;;;;;;0.20;0.20;;;;;;;;;;5071469;28;20085;-64
2022/03/02 01:19:39;;;;;;;0.28;0.28;;;;;;;;;;5053251;28;20033;-65
2022/03/02 01:22:06;;;;;;;0.10;0.10;;;;;;;;;;5071617;28;20059;-63
2022/03/02 01:24:31;;;;;;;0.10;0.10;;;;;;;;;;5052859;28;20047;-61
2022/03/02 01:26:57;;;;;;;0.10;0.10;;;;;;;;;;5071407;28;20042;-65
2022/03/02 01:29:23;;;;;;;0.10;0.10;;;;;;;;;;5052549;28;20037;-61
2022/03/02 01:31:49;;;;;;;0.50;0.50;;;;;;;;;;5053339;28;20044;-62
2022/03/02 01:34:14;;;;;;;0.52;0.52;;;;;;;;;;5053290;28;20036;-63
2022/03/02 01:36:41;;;;;;;0.10;0.10;;;;;;;;;;5071231;28;20093;-64
2022/03/02 01:39:08;;;;;;;0.10;0.10;;;;;;;;;;5053364;28;20040;-62
2022/03/02 01:41:34;;;;;;;0.10;0.10;;;;;;;;;;5070916;28;20035;-63
2022/03/02 01:43:59;;;;;;;0.40;0.40;;;;;;;;;;5052666;28;20040;-63
2022/03/02 01:46:25;;;;;;;0.10;0.10;;;;;;;;;;5052664;28;20040;-64
2022/03/02 01:48:50;;;;;;;0.10;0.10;;;;;;;;;;5070810;28;20064;-63
2022/03/02 01:51:16;;;;;;;0.10;0.10;;;;;;;;;;5070707;28;20127;-63
2022/03/02 01:53:42;;;;;;;0.10;0.10;;;;;;;;;;5070763;28;20115;-64
2022/03/02 01:56:08;;;;;;;0.10;0.10;;;;;;;;;;5052788;28;20040;-64
2022/03/02 01:58:33;;;;;;;0.10;0.10;;;;;;;;;;5053074;28;20048;-62
2022/03/02 02:01:00;;;;;;;0.20;0.20;;;;;;;;;;5036241;28;20119;-64
2022/03/02 02:03:26;;;;;;;0.10;0.10;;;;;;;;;;5052850;28;20032;-63
2022/03/02 02:05:51;;;;;;;0.10;0.10;;;;;;;;;;5070732;28;20118;-63
2022/03/02 02:08:17;;;;;;;0.30;0.30;;;;;;;;;;5070665;28;20044;-63
2022/03/02 02:10:42;;;;;;;0.10;0.10;;;;;;;;;;5071218;28;20063;-64
2022/03/02 02:13:08;;;;;;;12.13;11.50;;;;;;;;;;5036264;28;20514;-64
2022/03/02 02:15:34;;;;;;;0.10;0.10;;;;;;;;;;5035033;28;20506;-64
2022/03/02 02:17:59;;;;;;;0.10;0.10;;;;;;;;;;5069840;28;20036;-64
2022/03/02 02:20:25;;;;;;;0.20;0.20;;;;;;;;;;5070839;28;20024;-63
2022/03/02 02:22:51;;;;;;;0.10;0.10;;;;;;;;;;5036068;28;20143;-63
2022/03/02 02:25:16;;;;;;;4.88;2.45;;;;;;;;;;5070431;28;20087;-65
2022/03/02 02:27:44;;;;;;;0.10;0.10;;;;;;;;;;5070141;28;20033;-65
2022/03/02 02:30:10;;;;;;;0.10;0.10;;;;;;;;;;5052236;28;20043;-62
2022/03/02 02:32:37;;;;;;;0.10;0.10;;;;;;;;;;5036103;28;20063;-63
2022/03/02 02:35:02;;;;;;;0.10;0.10;;;;;;;;;;5036040;28;20043;-63
2022/03/02 02:37:28;;;;;;;0.10;0.10;;;;;;;;;;5036003;28;20044;-65
2022/03/02 02:39:59;;;;;;;0.10;0.10;;;;;;;;;;5052055;28;20567;-64
2022/03/02 02:42:24;;;;;;;;;;;;;;;;;;5069917;28;20078;-62
2022/03/02 02:44:50;;;;;;;0.20;0.20;;;;;;;;;;5035716;28;20303;-63
2022/03/02 02:47:15;;;;;;;0.10;0.10;;;;;;;;;;5070241;28;20028;-62
2022/03/02 02:49:41;;;;;;;0.10;0.10;;;;;;;;;;5070073;28;20042;-63
2022/03/02 02:52:06;;;;;;;0.10;0.10;;;;;;;;;;5069904;28;20040;-65
2022/03/02 02:54:32;;;;;;;0.10;0.10;;;;;;;;;;5052004;28;20043;-66
2022/03/02 02:56:57;;;;;;;0.10;0.10;;;;;;;;;;5069894;28;20067;-65
2022/03/02 02:59:24;;;;;;;0.10;0.10;;;;;;;;;;5051939;28;20684;-65
2022/03/02 03:01:50;;;;;;;0.10;0.10;;;;;;;;;;5052101;28;20055;-65
2022/03/02 03:04:15;;;;;;;0.10;0.10;;;;;;;;;;5069708;28;20437;-65
2022/03/02 03:06:40;;;;;;;0.10;0.10;;;;;;;;;;5070090;28;20036;-64
2022/03/02 03:09:06;;;;;;;0.10;0.10;;;;;;;;;;5070069;28;20037;-65
2022/03/02 03:11:32;;;;;;;0.10;0.10;;;;;;;;;;5069843;28;20036;-66
2022/03/02 03:13:58;;;;;;;0.10;0.10;;;;;;;;;;5035015;28;20520;-65
2022/03/02 03:16:23;;;;;;;0.10;0.10;;;;;;;;;;5069426;28;20029;-64
2022/03/02 03:18:49;;;;;;;0.10;0.10;;;;;;;;;;5069936;28;20124;-64
2022/03/02 03:21:14;;;;;;;0.10;0.10;;;;;;;;;;5069872;28;20100;-64
2022/03/02 03:23:40;;;;;;;0.10;0.10;;;;;;;;;;5069545;28;20481;-65
2022/03/02 03:26:05;;;;;;;0.10;0.10;;;;;;;;;;5069803;28;20041;-64
2022/03/02 03:28:31;;;;;;;0.05;0.05;;;;;;;;;;5073195;28;20039;-63
2022/03/02 03:30:56;;;;;;;3.17;0.20;;;;;;;;;;5073323;28;20082;-65
2022/03/02 03:33:22;;;;;;;5.13;0.73;;;;;;;;;;5072640;28;20502;-62
2022/03/02 03:35:47;;;;;;;1.33;0.65;;;;;;;;;;5073253;28;20082;-64
2022/03/02 03:38:13;;;;;;;0.10;0.10;;;;;;;;;;5072956;28;20115;-63
2022/03/02 03:40:38;;;;;;;0.10;0.10;;;;;;;;;;5072688;28;20034;-65
2022/03/02 03:43:04;;;;;;;0.10;0.10;;;;;;;;;;5073212;28;20457;-63
2022/03/02 03:45:29;;;;;;;0.10;0.10;;;;;;;;;;5038537;28;20437;-64
2022/03/02 03:47:55;;;;;;;0.10;0.10;;;;;;;;;;5038591;28;20452;-65
2022/03/02 03:50:21;;;;;;;0.20;0.20;;;;;;;;;;5054217;28;20028;-63
2022/03/02 03:52:47;;;;;;;0.22;0.22;;;;;;;;;;5037113;28;20040;-63
2022/03/02 03:55:13;;;;;;;0.32;0.32;;;;;;;;;;5072895;28;20032;-63
2022/03/02 03:57:39;;;;;;;0.50;0.50;;;;;;;;;;5054173;28;20082;-64
2022/03/02 04:00:06;;;;;;;1.05;0.82;;;;;;;;;;5038022;28;20060;-62
2022/03/02 04:02:31;;;;;;;0.45;0.45;;;;;;;;;;5055803;28;20040;-64
2022/03/02 04:04:57;;;;;;;2.85;1.40;;;;;;;;;;5088957;28;20039;-63
2022/03/02 04:07:22;;;;;;;0.10;0.10;;;;;;;;;;5088592;28;20123;-63
2022/03/02 04:09:48;;;;;;;0.10;0.10;;;;;;;;;;5071441;28;20107;-62
2022/03/02 04:12:14;;;;;;;0.10;0.10;;;;;;;;;;5089056;28;20160;-63
2022/03/02 04:14:39;;;;;;;0.47;0.47;;;;;;;;;;5054182;28;20024;-62
2022/03/02 04:17:05;;;;;;;0.32;0.32;;;;;;;;;;5054413;28;20035;-64
2022/03/02 04:19:31;;;;;;;0.73;0.32;;;;;;;;;;5088943;28;20032;-62
2022/03/02 04:21:56;;;;;;;2.28;2.10;;;;;;;;;;5089118;28;20043;-65
2022/03/02 04:24:21;;;;;;;0.32;0.30;;;;;;;;;;5088957;28;20032;-63
2022/03/02 04:26:47;;;;;;;0.10;0.10;;;;;;;;;;5087936;28;20670;-62
2022/03/02 04:29:12;;;;;;;0.10;0.10;;;;;;;;;;5088784;28;20078;-61
2022/03/02 04:31:38;;;;;;;0.10;0.10;;;;;;;;;;5088946;28;20398;-63
2022/03/02 04:34:04;;;;;;;0.75;0.75;;;;;;;;;;5089117;28;20047;-60
2022/03/02 04:36:29;;;;;;;1.27;1.17;;;;;;;;;;5088852;28;20032;-65
2022/03/02 04:38:55;;;;;;;2.13;1.15;;;;;;;;;;5088666;28;20024;-63
2022/03/02 04:41:20;;;;;;;1.02;0.98;;;;;;;;;;5087815;28;20077;-64
2022/03/02 04:43:46;;;;;;;6.65;2.65;;;;;;;;;;5088454;28;20069;-62
2022/03/02 04:46:11;;;;;;;0.90;0.52;;;;;;;;;;5053465;28;20097;-65
2022/03/02 04:48:37;;;;;;;0.10;0.10;;;;;;;;;;5070702;28;20081;-65
2022/03/02 04:51:02;;;;;;;0.10;0.10;;;;;;;;;;5053588;28;20039;-63
2022/03/02 04:53:28;;;;;;;1.65;0.60;;;;;;;;;;5052986;28;20529;-64
2022/03/02 04:55:54;;;;;;;0.10;0.10;;;;;;;;;;5088079;28;20612;-64
2022/03/02 04:58:19;;;;;;;0.20;0.20;;;;;;;;;;5087685;28;20138;-63
2022/03/02 05:00:45;;;;;;;0.10;0.10;;;;;;;;;;5053321;28;20206;-66
2022/03/02 05:03:10;;;;;;;0.10;0.10;;;;;;;;;;5088436;28;20058;-63
2022/03/02 05:05:37;;;;;;;0.10;0.10;;;;;;;;;;5070008;28;20059;-64
2022/03/02 05:08:03;;;;;;;0.10;0.10;;;;;;;;;;5053930;28;20116;-63
2022/03/02 05:10:29;;;;;;;0.10;0.10;;;;;;;;;;5087971;28;20111;-63
2022/03/02 05:12:55;;;;;;;0.10;0.10;;;;;;;;;;5053183;28;20032;-68
2022/03/02 05:15:21;;;;;;;3.13;2.38;;;;;;;;;;5070161;28;20157;-63
2022/03/02 05:17:50;;;;;;;0.10;0.10;;;;;;;;;;5052610;28;20055;-65
2022/03/02 05:20:17;;;;;;;0.10;0.10;;;;;;;;;;5086554;28;20020;-65
2022/03/02 05:22:42;;;;;;;0.10;0.10;;;;;;;;;;5053055;28;20428;-64
2022/03/02 05:25:09;;;;;;;0.10;0.10;;;;;;;;;;5069797;28;20052;-63
2022/03/02 05:27:35;;;;;;;0.10;0.10;;;;;;;;;;5053045;28;20054;-64
2022/03/02 05:30:01;;;;;;;1.27;1.05;;;;;;;;;;5053657;28;20024;-62
2022/03/02 05:32:27;;;;;;;0.10;0.10;;;;;;;;;;5053096;28;20043;-65
2022/03/02 05:34:53;;;;;;;0.10;0.10;;;;;;;;;;5069870;28;20031;-63
2022/03/02 05:37:18;;;;;;;0.10;0.10;;;;;;;;;;5087351;28;20043;-65
2022/03/02 05:39:44;;;;;;;0.10;0.10;;;;;;;;;;5068862;28;20176;-63
2022/03/02 05:42:09;;;;;;;0.10;0.10;;;;;;;;;;5068977;28;20484;-68
2022/03/02 05:44:35;;;;;;;0.30;0.30;;;;;;;;;;5069266;28;20032;-63
2022/03/02 05:47:01;;;;;;;0.25;0.25;;;;;;;;;;5087171;28;20035;-68
2022/03/02 05:49:26;;;;;;;0.57;0.57;;;;;;;;;;5086814;28;20502;-63
2022/03/02 05:51:52;;;;;;;0.30;0.30;;;;;;;;;;5086288;28;20043;-64
2022/03/02 05:54:17;;;;;;;0.10;0.10;;;;;;;;;;5087432;28;20078;-63
2022/03/02 05:56:43;;;;;;;0.10;0.10;;;;;;;;;;5087560;28;20036;-64
2022/03/02 05:59:09;;;;;;;0.10;0.10;;;;;;;;;;5087596;28;20328;-65
2022/03/02 06:01:35;;;;;;;3.92;1.55;;;;;;;;;;5087814;28;20349;-64
2022/03/02 06:04:02;;;;;;;0.10;0.10;;;;;;;;;;5085414;28;20043;-63
2022/03/02 06:06:32;;;;;;;0.10;0.10;;;;;;;;;;5050348;28;20055;-64
2022/03/02 06:08:59;;;;;;;0.10;0.10;;;;;;;;;;5068567;28;20132;-63
2022/03/02 06:11:25;;;;;;;0.10;0.10;;;;;;;;;;5054571;28;20028;-64
2022/03/02 06:13:51;;;;;;;0.47;0.45;;;;;;;;;;5054597;28;20039;-63
2022/03/02 06:16:16;;;;;;;0.10;0.10;;;;;;;;;;5089160;28;20044;-64
2022/03/02 06:18:42;;;;;;;0.88;0.63;;;;;;;;;;5089373;28;20039;-64
2022/03/02 06:21:09;;;;;;;0.35;0.35;;;;;;;;;;5087186;28;20185;-63
2022/03/02 06:23:35;;;;;;;0.17;0.17;;;;;;;;;;5086219;28;20372;-61
2022/03/02 06:26:01;;;;;;;0.10;0.10;;;;;;;;;;5071233;28;20232;-63
2022/03/02 06:28:27;;;;;;;0.10;0.10;;;;;;;;;;5070957;28;20135;-66
2022/03/02 06:30:53;;;;;;;0.10;0.10;;;;;;;;;;5089346;28;20044;-60
2022/03/02 06:33:27;;;;;;;0.20;0.20;;;;;;;;;;5091373;28;20077;-63
2022/03/02 06:36:13;;;;;;;0.38;0.38;;;;;;;;;;5078982;28;20387;-62
2022/03/02 06:38:47;;;;;;;1.60;1.50;;;;;;;;;;5073920;28;20177;-64
2022/03/02 06:41:22;;;;;;;0.65;0.65;;;;;;;;;;5083350;28;20111;-68
2022/03/02 06:44:07;;;;;;;0.10;0.10;;;;;;;;;;5107527;28;20024;-66
2022/03/02 06:46:36;;;;;;;0.88;0.88;;;;;;;;;;5106396;28;20111;-68
2022/03/02 06:49:03;;;;;;;0.10;0.10;;;;;;;;;;5108887;28;20032;-67
2022/03/02 06:51:30;;;;;;;1.80;1.75;;;;;;;;;;5109210;28;20031;-67
2022/03/02 06:53:57;;;;;;;0.10;0.10;;;;;;;;;;5109139;28;20024;-68
2022/03/02 06:56:24;;;;;;;7.95;7.43;;;;;;;;;;5109101;28;20046;-65
2022/03/02 06:58:54;;;;;;;1.58;1.02;;;;;;;;;;5100838;28;20032;-67
2022/03/02 07:01:30;;;;;;;0.10;0.10;;;;;;;;;;5103877;28;20398;-67
2022/03/02 07:03:57;;;;;;;4.15;3.95;;;;;;;;;;5108810;28;20031;-69
2022/03/02 07:06:24;;;;;;;0.10;0.10;;;;;;;;;;5107534;28;20035;-68
2022/03/02 07:08:49;;;;;;;0.10;0.10;;;;;;;;;;5098041;28;20031;-70
2022/03/02 07:11:16;;;;;;;0.10;0.10;;;;;;;;;;5095688;28;20745;-68
2022/03/02 07:13:42;;;;;;;0.10;0.10;;;;;;;;;;5085229;28;20460;-70
2022/03/02 07:16:08;;;;;;;0.35;0.35;;;;;;;;;;5085798;28;20036;-69
2022/03/02 07:18:34;;;;;;;0.10;0.10;;;;;;;;;;5070982;28;20031;-67
2022/03/02 07:21:01;;;;;;;0.10;0.10;;;;;;;;;;5096554;28;20051;-69
2022/03/02 07:23:28;;;;;;;0.52;0.52;;;;;;;;;;5106796;28;20028;-68
2022/03/02 07:25:58;;;;;;;0.10;0.10;;;;;;;;;;5088439;28;20372;-68
2022/03/02 07:28:26;;;;;;;0.13;0.13;;;;;;;;;;5088470;28;20059;-66
2022/03/02 07:30:52;;;;;;;0.10;0.10;;;;;;;;;;5105033;28;20378;-68
2022/03/02 07:33:18;;;;;;;0.10;0.10;;;;;;;;;;5105300;28;20078;-67
2022/03/02 07:35:47;;;;;;;0.10;0.10;;;;;;;;;;5104785;28;20478;-70
2022/03/02 07:38:12;;;;;;;0.10;0.10;;;;;;;;;;5086721;28;20031;-66
2022/03/02 07:40:38;;;;;;;0.10;0.10;;;;;;;;;;5105518;28;20465;-67
2022/03/02 07:43:03;;;;;;;0.10;0.10;;;;;;;;;;5105145;28;20030;-67
2022/03/02 07:45:29;;;;;;;0.17;0.17;;;;;;;;;;5106686;28;20463;-69
2022/03/02 07:47:56;;;;;;;0.10;0.10;;;;;;;;;;5090022;28;20058;-62
2022/03/02 07:50:22;;;;;;;0.10;0.10;;;;;;;;;;5107203;28;20030;-66
2022/03/02 07:52:48;;;;;;;0.10;0.10;;;;;;;;;;5107315;28;20203;-66
2022/03/02 07:55:15;;;;;;;0.10;0.10;;;;;;;;;;5107264;28;20481;-65
2022/03/02 07:57:40;;;;;;;0.10;0.10;;;;;;;;;;5089648;28;20104;-64
2022/03/02 08:00:07;;;;;;;0.10;0.10;;;;;;;;;;5106237;28;20487;-67
2022/03/02 08:02:32;;;;;;;0.10;0.10;;;;;;;;;;5071601;28;20055;-64
2022/03/02 08:04:58;;;;;;;3.95;1.90;;;;;;;;;;5107189;28;20086;-66
2022/03/02 08:07:23;;;;;;;0.10;0.10;;;;;;;;;;5088857;28;20077;-65
2022/03/02 08:09:50;;;;;;;0.10;0.10;;;;;;;;;;5107678;28;20471;-66
2022/03/02 08:12:19;;;;;;;0.20;0.20;;;;;;;;;;5108203;28;20491;-65
2022/03/02 08:14:44;;;;;;;0.20;0.20;;;;;;;;;;5092281;28;20043;-66
2022/03/02 08:17:10;;;;;;;0.43;0.30;;;;;;;;;;5109913;28;20039;-66
2022/03/02 08:19:36;;;;;;;0.95;0.95;;;;;;;;;;5110390;28;20531;-66
2022/03/02 08:22:03;;;;;;;0.22;0.22;;;;;;;;;;5111255;28;20102;-67
2022/03/02 08:24:30;;;;;;;0.10;0.10;;;;;;;;;;5110658;28;20032;-67
2022/03/02 08:27:00;;;;;;;0.47;0.43;;;;;;;;;;5110800;28;20023;-66
2022/03/02 08:29:30;;;;;;;1.80;0.80;;;;;;;;;;5110032;28;20100;-67
2022/03/02 08:32:00;;;;;;;0.20;0.20;;;;;;;;;;5109343;28;20039;-66
2022/03/02 08:34:27;;;;;;;4.95;1.55;;;;;;;;;;5091271;28;20035;-65
2022/03/02 08:36:53;;;;;;;0.30;0.30;;;;;;;;;;5107607;28;20043;-66
2022/03/02 08:39:19;;;;;;;0.20;0.20;;;;;;;;;;5095782;28;20032;-67
2022/03/02 08:41:45;;;;;;;0.52;0.20;;;;;;;;;;5071430;28;20039;-65
2022/03/02 08:44:12;;;;;;;0.65;0.65;;;;;;;;;;5088804;28;20396;-65
2022/03/02 08:46:39;;;;;;;0.20;0.20;;;;;;;;;;5108770;28;20024;-64
2022/03/02 08:49:05;;;;;;;0.88;0.82;;;;;;;;;;5109695;28;20058;-64
2022/03/02 08:51:32;;;;;;;0.20;0.20;;;;;;;;;;5111561;28;20063;-65
2022/03/02 08:54:04;;;;;;;0.10;0.10;;;;;;;;;;5109324;28;20056;-67
2022/03/02 08:56:35;;;;;;;0.10;0.10;;;;;;;;;;5109221;28;20423;-65
2022/03/02 08:59:01;;;;;;;0.65;0.63;;;;;;;;;;5110134;28;20042;-66
2022/03/02 09:01:29;;;;;;;0.22;0.22;;;;;;;;;;5091066;28;20490;-66
2022/03/02 09:03:57;;;;;;;0.43;0.30;;;;;;;;;;5091326;28;20043;-66
2022/03/02 09:06:25;;;;;;;0.85;0.65;;;;;;;;;;5108664;28;20542;-67
2022/03/02 09:08:51;;;;;;;0.85;0.47;;;;;;;;;;5106454;28;20114;-66
2022/03/02 09:11:17;;;;;;;0.20;0.20;;;;;;;;;;5106878;28;20447;-67
2022/03/02 09:13:42;;;;;;;0.15;0.15;;;;;;;;;;5088159;28;20036;-67
2022/03/02 09:16:10;;;;;;;0.20;0.20;;;;;;;;;;5088389;28;20119;-69
2022/03/02 09:18:36;;;;;;;0.10;0.10;;;;;;;;;;5089587;28;20032;-66
2022/03/02 09:21:05;;;;;;;0.20;0.20;;;;;;;;;;5077155;28;20039;-67
2022/03/02 09:23:34;;;;;;;1.88;1.77;;;;;;;;;;5089209;28;20123;-66
2022/03/02 09:26:04;;;;;;;1.70;1.08;;;;;;;;;;5088832;28;20039;-68
2022/03/02 09:28:32;;;;;;;1.20;1.00;;;;;;;;;;5088489;28;20082;-69
2022/03/02 09:31:02;;;;;;;0.75;0.57;;;;;;;;;;5089047;28;20034;-69
2022/03/02 09:33:34;;;;;;;2.67;1.63;;;;;;;;;;5088182;28;20032;-67
2022/03/02 09:36:06;;;;;;;0.20;0.17;;;;;;;;;;5088287;28;20123;-69
2022/03/02 09:38:33;;;;;;;0.32;0.30;;;;;;;;;;5088026;28;20063;-68
2022/03/02 09:41:02;;;;;;;0.95;0.57;;;;;;;;;;5086739;28;20535;-69
2022/03/02 09:43:29;;;;;;;0.27;0.27;;;;;;;;;;5086965;28;20024;-69
2022/03/02 09:45:58;;;;;;;0.63;0.40;;;;;;;;;;5088016;28;20027;-68
2022/03/02 09:48:49;;;;;;;0.88;0.80;;;;;;;;;;5087819;28;20107;-68
2022/03/02 09:51:22;;;;;;;1.85;0.38;;;;;;;;;;5082930;28;20825;-70
2022/03/02 09:53:49;;;;;;;0.40;0.40;;;;;;;;;;5069621;28;20028;-70
2022/03/02 09:56:14;;;;;;;0.75;0.70;;;;;;;;;;5087787;28;20491;-69
2022/03/02 09:58:40;;;;;;;1.50;1.10;;;;;;;;;;5069858;28;20046;-68
2022/03/02 10:01:13;;;;;;;0.95;0.80;;;;;;;;;;5087796;28;20141;-67
2022/03/02 10:03:43;;;;;;;1.73;1.10;;;;;;;;;;5088896;28;20068;-68
2022/03/02 10:06:09;;;;;;;1.98;1.40;;;;;;;;;;5088519;28;20036;-69
2022/03/02 10:08:35;;;;;;;3.03;2.45;;;;;;;;;;5088165;28;20064;-69
2022/03/02 10:11:03;;;;;;;0.20;0.20;;;;;;;;;;5087938;28;20035;-68
2022/03/02 10:13:28;;;;;;;0.85;0.82;;;;;;;;;;5087394;28;20032;-70
2022/03/02 10:15:56;;;;;;;4.90;1.60;;;;;;;;;;5069614;28;20365;-69
2022/03/02 10:18:23;;;;;;;1.05;0.73;;;;;;;;;;5088120;28;20036;-69
2022/03/02 10:20:53;;;;;;;0.80;0.70;;;;;;;;;;5091372;28;20024;-69
2022/03/02 10:23:30;;;;;;;1.65;1.05;;;;;;;;;;5075536;28;20046;-69
2022/03/02 10:26:08;;;;;;;1.25;0.93;;;;;;;;;;5085226;28;20524;-69
2022/03/02 10:28:46;;;;;;;0.20;0.20;;;;;;;;;;5093711;28;20077;-69
2022/03/02 10:31:28;;;;;;;0.50;0.50;;;;;;;;;;5096970;28;20039;-69
2022/03/02 10:33:54;;;;;;;2.60;1.45;;;;;;;;;;5089489;28;20111;-69
2022/03/02 10:36:21;;;;;;;0.73;0.73;;;;;;;;;;5084707;28;20548;-69
2022/03/02 10:38:46;;;;;;;1.00;0.50;;;;;;;;;;5093054;28;20042;-70
2022/03/02 10:41:12;;;;;;;1.88;1.17;;;;;;;;;;5086960;28;20028;-65
2022/03/02 10:43:47;;;;;;;0.25;0.25;;;;;;;;;;5086446;28;20432;-65
2022/03/02 10:46:18;;;;;;;1.08;0.90;;;;;;;;;;5086448;28;20034;-67
2022/03/02 10:48:50;;;;;;;3.42;1.38;;;;;;;;;;5068753;28;20050;-70
2022/03/02 10:51:17;;;;;;;0.65;0.50;;;;;;;;;;5063926;28;20035;-68
2022/03/02 10:53:46;;;;;;;4.15;1.73;;;;;;;;;;5070994;28;20349;-68
2022/03/02 10:56:13;;;;;;;;;;;;;;;;;;5073818;28;20043;-69
2022/03/02 10:58:39;;;;;;;0.45;0.35;;;;;;;;;;5109351;28;19961;-67
2022/03/02 11:01:05;;;;;;;1.50;0.98;;;;;;;;;;5073938;28;20425;-66
2022/03/02 11:03:35;;;;;;;0.20;0.20;;;;;;;;;;5109040;28;20077;-67
2022/03/02 11:06:02;;;;;;;0.60;0.60;;;;;;;;;;5090073;28;20054;-63
2022/03/02 11:08:28;;;;;;;0.28;0.28;;;;;;;;;;5090704;28;20035;-64
2022/03/02 11:10:55;;;;;;;2.78;1.73;;;;;;;;;;5108778;28;20059;-63
2022/03/02 11:13:22;;;;;;;0.68;0.55;;;;;;;;;;5108750;28;20037;-62
2022/03/02 11:15:49;;;;;;;0.43;0.43;;;;;;;;;;5108345;28;20036;-62
2022/03/02 11:18:16;;;;;;;3.35;1.77;;;;;;;;;;5108605;28;20073;-65
2022/03/02 11:20:51;;;;;;;3.50;1.52;;;;;;;;;;5107772;28;20035;-63
2022/03/02 11:23:22;;;;;;;2.65;1.45;;;;;;;;;;5107764;28;20085;-62
2022/03/02 11:25:49;;;;;;;2.25;1.30;;;;;;;;;;5108382;28;20073;-64
2022/03/02 11:28:16;;;;;;;0.40;0.40;;;;;;;;;;5108575;28;20052;-62
2022/03/02 11:30:46;;;;;;;1.73;1.17;;;;;;;;;;5090695;28;20227;-61
2022/03/02 11:33:11;;;;;;;;;;;;;;;;;;5109074;28;20038;-62
2022/03/02 11:35:37;;;;;;;0.60;0.57;;;;;;;;;;5108261;28;19911;-62
2022/03/02 11:38:04;;;;;;;3.40;2.00;;;;;;;;;;5108409;28;20276;-61
2022/03/02 11:40:42;;;;;;;1.58;1.13;;;;;;;;;;5108347;28;20036;-62
2022/03/02 11:43:19;;;;;;;0.60;0.60;;;;;;;;;;5108324;28;20440;-66
2022/03/02 11:45:44;;;;;;;1.30;1.20;;;;;;;;;;5108302;28;20064;-61
2022/03/02 11:48:10;;;;;;;2.63;1.48;;;;;;;;;;5109886;28;20070;-61
2022/03/02 11:50:36;;;;;;;2.60;1.63;;;;;;;;;;5111421;28;20020;-61
2022/03/02 11:53:07;;;;;;;0.65;0.63;;;;;;;;;;5110925;28;20038;-62
2022/03/02 11:55:33;;;;;;;3.28;1.58;;;;;;;;;;5111731;28;20035;-62
2022/03/02 11:58:00;;;;;;;0.43;0.43;;;;;;;;;;5093485;28;20120;-62
2022/03/02 12:00:27;;;;;;;0.60;0.60;;;;;;;;;;5112096;28;20040;-62
2022/03/02 12:03:01;;;;;;;1.95;1.00;;;;;;;;;;5111898;28;20117;-61
2022/03/02 12:05:31;;;;;;;0.80;0.70;;;;;;;;;;5111609;28;20051;-62
2022/03/02 12:07:56;;;;;;;;;;;;;;;;;;5111924;28;20047;-64
2022/03/02 12:10:28;;;;;;;4.20;1.50;;;;;;;;;;5111925;28;19911;-63
2022/03/02 12:12:55;;;;;;;3.10;1.50;;;;;;;;;;5111790;28;20020;-63
2022/03/02 12:15:21;;;;;;;0.85;0.85;;;;;;;;;;5111336;28;20118;-63
2022/03/02 12:17:48;;;;;;;4.47;2.78;;;;;;;;;;5098613;28;20128;-62
2022/03/02 12:20:24;;;;;;;1.55;1.00;;;;;;;;;;5090249;28;20031;-63
2022/03/02 12:22:54;;;;;;;2.28;1.13;;;;;;;;;;5089947;28;20059;-62
2022/03/02 12:25:23;;;;;;;0.95;0.65;;;;;;;;;;5091498;28;20032;-62
2022/03/02 12:28:09;;;;;;;0.20;0.20;;;;;;;;;;5091068;28;20032;-63
2022/03/02 12:30:35;;;;;;;2.53;1.15;;;;;;;;;;5091152;28;20076;-62
2022/03/02 12:33:02;;;;;;;3.20;1.23;;;;;;;;;;5091240;28;20032;-62
2022/03/02 12:35:27;;;;;;;0.95;0.85;;;;;;;;;;5090176;28;20114;-64
2022/03/02 12:37:54;;;;;;;1.35;0.70;;;;;;;;;;5089986;28;20107;-61
2022/03/02 12:40:21;;;;;;;0.45;0.45;;;;;;;;;;5090399;28;20040;-62
2022/03/02 12:42:47;;;;;;;0.30;0.30;;;;;;;;;;5091336;28;20081;-61
2022/03/02 12:45:13;;;;;;;3.53;2.17;;;;;;;;;;5076957;28;20033;-61
2022/03/02 12:47:39;;;;;;;1.25;0.93;;;;;;;;;;5069669;28;20087;-61
2022/03/02 12:50:06;;;;;;;1.30;0.95;;;;;;;;;;5052321;28;20444;-61
2022/03/02 12:52:32;;;;;;;1.33;0.68;;;;;;;;;;5088612;28;20055;-62
2022/03/02 12:54:58;;;;;;;4.32;1.90;;;;;;;;;;5104994;28;20784;-64
2022/03/02 12:57:28;;;;;;;1.55;1.05;;;;;;;;;;5090305;28;20027;-62
2022/03/02 12:59:54;;;;;;;0.10;0.10;;;;;;;;;;5110073;28;20027;-61
2022/03/02 13:02:24;;;;;;;0.30;0.30;;;;;;;;;;5111007;28;20039;-62
2022/03/02 13:05:02;;;;;;;1.10;0.82;;;;;;;;;;5110579;28;20028;-61
2022/03/02 13:07:46;;;;;;;1.50;0.70;;;;;;;;;;5074544;28;20043;-62
2022/03/02 13:10:12;;;;;;;4.43;1.63;;;;;;;;;;5110660;28;20034;-61
2022/03/02 13:12:42;;;;;;;1.92;1.30;;;;;;;;;;5108905;28;20131;-62
2022/03/02 13:15:26;;;;;;;1.75;1.33;;;;;;;;;;5108448;28;20126;-62
2022/03/02 13:18:07;;;;;;;3.30;1.98;;;;;;;;;;5107768;28;20031;-61
2022/03/02 13:20:33;;;;;;;1.52;1.13;;;;;;;;;;5100682;28;20459;-62
2022/03/02 13:23:10;;;;;;;0.73;0.57;;;;;;;;;;5088000;28;20036;-61
2022/03/02 13:25:36;;;;;;;2.40;1.80;;;;;;;;;;5086814;28;20032;-64
2022/03/02 13:28:09;;;;;;;2.55;1.48;;;;;;;;;;5094984;28;20032;-63
2022/03/02 13:30:36;;;;;;;1.85;1.23;;;;;;;;;;5094232;28;20036;-61
2022/03/02 13:33:05;;;;;;;1.75;1.05;;;;;;;;;;5079016;28;20066;-61
2022/03/02 13:35:33;;;;;;;3.58;1.33;;;;;;;;;;5086424;28;20113;-64
2022/03/02 13:37:58;;;;;;;1.33;0.77;;;;;;;;;;5087410;28;20543;-62
2022/03/02 13:40:33;;;;;;;2.70;1.67;;;;;;;;;;5087451;28;20096;-61
2022/03/02 13:43:05;;;;;;;4.90;2.13;;;;;;;;;;5088025;28;20075;-61
2022/03/02 13:45:35;;;;;;;2.67;1.67;;;;;;;;;;5087511;28;20085;-62
2022/03/02 13:48:13;;;;;;;3.60;1.73;;;;;;;;;;5087779;28;20114;-66
2022/03/02 13:50:54;;;;;;;0.30;0.30;;;;;;;;;;5086793;28;20518;-62
2022/03/02 13:53:31;;;;;;;2.22;1.20;;;;;;;;;;5086680;28;20036;-60
2022/03/02 13:56:02;;;;;;;4.97;2.83;;;;;;;;;;5087490;28;20062;-61
2022/03/02 13:58:28;;;;;;;5.40;2.33;;;;;;;;;;5087306;28;20127;-61
2022/03/02 14:00:54;;;;;;;2.10;0.70;;;;;;;;;;5087172;28;20103;-61
2022/03/02 14:03:27;;;;;;;0.50;0.50;;;;;;;;;;5087462;28;20615;-62
2022/03/02 14:05:52;;;;;;;1.17;0.65;;;;;;;;;;5071117;28;20435;-62
2022/03/02 14:08:18;;;;;;;1.83;1.23;;;;;;;;;;5071015;28;20036;-69
2022/03/02 14:10:45;;;;;;;11.65;2.60;;;;;;;;;;5087569;28;20111;-69
2022/03/02 14:13:10;;;;;;;10.45;1.45;;;;;;;;;;5053045;28;20139;-66
2022/03/02 14:15:36;;;;;;;1.75;0.77;;;;;;;;;;5075804;28;20119;-70
2022/03/02 14:18:06;;;;;;;3.47;1.20;;;;;;;;;;5069385;28;20036;-61
2022/03/02 14:20:33;;;;;;;1.38;0.85;;;;;;;;;;5086512;28;20488;-68
2022/03/02 14:23:06;;;;;;;2.40;1.25;;;;;;;;;;5087709;28;20047;-62
2022/03/02 14:25:32;;;;;;;2.22;1.38;;;;;;;;;;5088730;28;20107;-65
2022/03/02 14:27:58;;;;;;;3.33;1.77;;;;;;;;;;5088320;28;20031;-64
2022/03/02 14:30:26;;;;;;;1.27;0.90;;;;;;;;;;5088395;28;20040;-61
2022/03/02 14:32:53;;;;;;;0.77;0.63;;;;;;;;;;5070761;28;20032;-63
2022/03/02 14:35:20;;;;;;;0.95;0.65;;;;;;;;;;5054034;28;20043;-63
2022/03/02 14:37:47;;;;;;;2.08;1.25;;;;;;;;;;5088186;28;20039;-68
2022/03/02 14:40:20;;;;;;;4.55;2.60;;;;;;;;;;5085611;28;20024;-66
2022/03/02 14:42:49;;;;;;;3.53;2.08;;;;;;;;;;5051272;28;20052;-66
2022/03/02 14:45:17;;;;;;;1.30;0.90;;;;;;;;;;5068455;28;20032;-60